Time;durP1;ratioP1;P1;durP2;ratioP2;P2;SDS_P1;SDS_P2;PMS_P1;PMS_P2;Temp;Humidity;BMP_temperature;BMP_pressure;BME280_temperature;BME280_humidity;BME280_pressure;Samples;Min_cycle;Max_cycle;Signal;HPM_P1;HPM_P2
2023/03/30 00:02:29;;;;;;;3.92;1.10;;;18.50;56.80;;;;;;5014937;28;20060;-85
2023/03/30 00:04:56;;;;;;;2.47;0.90;;;18.50;56.80;;;;;;5014935;28;20021;-86
2023/03/30 00:07:21;;;;;;;1.50;0.98;;;18.40;56.70;;;;;;5014911;28;20022;-86
2023/03/30 00:09:47;;;;;;;1.35;1.10;;;18.50;56.80;;;;;;5014945;28;20018;-86
2023/03/30 00:12:14;;;;;;;1.33;0.93;;;18.40;56.70;;;;;;5014840;28;20025;-87
2023/03/30 00:14:41;;;;;;;2.38;1.10;;;18.50;56.80;;;;;;5014766;28;20025;-86
2023/03/30 00:17:08;;;;;;;2.45;1.10;;;18.50;56.60;;;;;;5014624;28;20107;-87
2023/03/30 00:19:37;;;;;;;2.88;1.08;;;18.50;56.60;;;;;;5014668;28;20030;-87
2023/03/30 00:22:07;;;;;;;1.23;1.00;;;18.50;56.70;;;;;;5014522;28;20025;-87
2023/03/30 00:24:34;;;;;;;2.55;0.85;;;18.50;56.70;;;;;;5014792;28;20033;-86
2023/03/30 00:27:00;;;;;;;1.40;0.90;;;18.50;56.70;;;;;;5014536;28;20029;-87
2023/03/30 00:29:26;;;;;;;2.80;1.02;;;18.50;56.70;;;;;;5014467;28;20022;-87
2023/03/30 00:31:52;;;;;;;1.10;1.00;;;18.40;56.80;;;;;;5014600;28;20496;-87
2023/03/30 00:34:18;;;;;;;1.98;0.98;;;18.40;56.70;;;;;;5014456;28;20033;-87
2023/03/30 00:36:45;;;;;;;1.42;0.85;;;18.50;56.70;;;;;;5014145;28;20034;-85
2023/03/30 00:39:12;;;;;;;2.30;1.15;;;18.50;56.80;;;;;;5014347;28;20133;-85
2023/03/30 00:41:38;;;;;;;1.45;0.90;;;18.40;56.80;;;;;;5014009;28;20045;-85
2023/03/30 00:44:42;;;;;;;1.70;0.85;;;18.50;56.80;;;;;;5014221;28;20026;-85
2023/03/30 00:47:07;;;;;;;1.67;1.13;;;18.40;56.80;;;;;;5013950;28;20461;-85
2023/03/30 00:49:33;;;;;;;1.98;1.15;;;18.40;56.90;;;;;;5014113;28;20037;-85
2023/03/30 00:51:59;;;;;;;2.80;0.88;;;18.40;56.90;;;;;;5014015;28;20173;-86
2023/03/30 00:54:25;;;;;;;1.48;1.20;;;18.40;56.90;;;;;;5014030;28;20025;-86
2023/03/30 00:56:51;;;;;;;1.90;1.00;;;18.40;56.80;;;;;;5013944;28;20109;-86
2023/03/30 00:59:17;;;;;;;1.98;0.80;;;18.50;56.90;;;;;;5014084;28;20152;-86
2023/03/30 01:01:49;;;;;;;0.93;0.80;;;18.40;56.90;;;;;;5013792;28;20115;-86
2023/03/30 01:04:19;;;;;;;1.25;1.00;;;18.40;56.90;;;;;;5014052;28;20022;-86
2023/03/30 01:06:47;;;;;;;1.70;1.02;;;18.40;56.90;;;;;;5014109;28;20025;-86
2023/03/30 01:09:15;;;;;;;1.77;0.90;;;18.40;56.90;;;;;;5013868;28;20057;-85
2023/03/30 01:11:42;;;;;;;1.23;0.63;;;18.40;56.90;;;;;;5013928;28;20045;-86
2023/03/30 01:14:11;;;;;;;1.38;0.95;;;18.40;56.90;;;;;;5013871;28;20389;-87
2023/03/30 01:16:39;;;;;;;1.55;0.98;;;18.50;57.00;;;;;;5013553;28;20046;-85
2023/03/30 01:19:11;;;;;;;2.47;0.90;;;18.40;56.90;;;;;;5013939;28;20091;-87
2023/03/30 01:22:00;;;;;;;3.97;1.13;;;18.40;56.90;;;;;;5013383;28;20116;-86
2023/03/30 01:24:47;;;;;;;0.60;0.55;;;18.40;56.90;;;;;;4993594;28;20038;-87
2023/03/30 01:27:20;;;;;;;1.73;0.80;;;18.40;56.90;;;;;;5013639;28;20077;-86
2023/03/30 01:30:04;;;;;;;0.93;0.73;;;18.40;56.90;;;;;;5014139;28;20060;-86
2023/03/30 01:33:15;;;;;;;1.23;0.90;;;18.40;56.90;;;;;;5014063;28;20417;-86
2023/03/30 01:36:02;;;;;;;1.52;1.00;;;18.40;56.90;;;;;;5013712;28;20030;-86
2023/03/30 01:38:49;;;;;;;1.17;0.80;;;18.40;56.90;;;;;;5013509;28;20033;-87
2023/03/30 01:41:31;;;;;;;1.40;0.70;;;18.40;56.90;;;;;;5013424;28;20033;-87
2023/03/30 01:44:15;;;;;;;4.25;1.00;;;18.40;57.00;;;;;;5013677;28;20076;-88
2023/03/30 01:46:48;;;;;;;0.68;0.68;;;18.40;56.90;;;;;;5013641;28;20026;-88
2023/03/30 01:49:22;;;;;;;1.10;1.00;;;18.40;56.90;;;;;;4996130;28;20534;-88
2023/03/30 01:52:06;;;;;;;1.65;0.85;;;18.40;56.90;;;;;;5013355;28;20044;-87
2023/03/30 01:54:38;;;;;;;1.20;0.88;;;18.40;56.90;;;;;;5013356;28;20030;-88
2023/03/30 01:57:17;;;;;;;1.27;0.80;;;18.40;56.90;;;;;;5013206;28;20022;-87
2023/03/30 01:59:57;;;;;;;1.40;0.73;;;18.40;56.80;;;;;;4995839;28;20049;-88
2023/03/30 02:02:24;;;;;;;;;;;18.40;56.80;;;;;;5013979;28;20073;-88
2023/03/30 02:04:53;;;;;;;5.25;1.17;;;18.40;56.90;;;;;;5013163;28;19912;-86
2023/03/30 02:07:22;;;;;;;1.17;1.05;;;18.40;56.90;;;;;;5013208;28;20025;-88
2023/03/30 02:09:51;;;;;;;1.65;0.77;;;18.40;56.90;;;;;;5013239;28;20032;-87
2023/03/30 02:12:19;;;;;;;1.67;0.82;;;18.40;56.80;;;;;;5013130;28;20109;-87
2023/03/30 02:14:47;;;;;;;2.45;1.00;;;18.40;56.80;;;;;;5012344;28;20034;-87
2023/03/30 02:17:23;;;;;;;1.58;0.90;;;18.40;56.80;;;;;;5012950;28;20037;-88
2023/03/30 02:19:50;;;;;;;2.42;0.90;;;18.40;56.90;;;;;;5012737;28;20042;-87
2023/03/30 02:22:18;;;;;;;1.02;0.70;;;18.40;56.90;;;;;;5012892;28;20034;-87
2023/03/30 02:24:47;;;;;;;1.48;0.80;;;18.40;56.90;;;;;;5013039;28;20036;-85
2023/03/30 02:27:13;;;;;;;1.95;1.10;;;18.40;56.80;;;;;;5013477;28;20038;-89
2023/03/30 02:29:42;;;;;;;1.63;0.90;;;18.40;56.90;;;;;;5013504;28;20026;-89
2023/03/30 02:32:17;;;;;;;0.80;0.70;;;18.40;56.90;;;;;;5013138;28;20034;-89
2023/03/30 02:35:07;;;;;;;1.38;0.90;;;18.40;57.50;;;;;;5012942;28;20021;-89
2023/03/30 02:37:39;;;;;;;1.83;1.10;;;18.40;56.90;;;;;;4995785;28;20025;-90
2023/03/30 02:40:51;;;;;;;2.17;0.75;;;18.40;56.90;;;;;;5013251;28;20037;-86
2023/03/30 02:43:43;;;;;;;1.08;0.70;;;18.40;56.90;;;;;;5012860;28;20072;-86
2023/03/30 02:46:20;;;;;;;1.60;0.85;;;18.40;56.90;;;;;;5004967;28;20133;-85
2023/03/30 02:48:57;;;;;;;2.58;1.05;;;18.40;57.00;;;;;;5012400;28;20026;-85
2023/03/30 02:52:16;;;;;;;1.58;0.65;;;18.40;57.00;;;;;;5012204;28;20038;-85
2023/03/30 02:55:00;;;;;;;1.10;0.65;;;18.40;56.90;;;;;;4954748;28;20042;-85
2023/03/30 02:57:28;;;;;;;0.80;0.57;;;18.40;57.00;;;;;;4970930;28;20034;-85
2023/03/30 03:00:00;;;;;;;1.25;0.70;;;18.40;57.00;;;;;;4996184;28;20034;-88
2023/03/30 03:02:32;;;;;;;1.40;0.60;;;18.40;57.10;;;;;;5012921;28;20064;-90
2023/03/30 03:05:03;;;;;;;1.45;0.63;;;18.40;57.10;;;;;;5013237;28;20049;-90
2023/03/30 03:07:31;;;;;;;;;;;18.40;57.10;;;;;;5013767;28;20034;-90
2023/03/30 03:09:56;;;;;;;2.88;0.82;;;18.40;57.20;;;;;;5013260;28;20277;-91
2023/03/30 03:12:22;;;;;;;1.55;0.90;;;18.40;57.20;;;;;;5012999;28;20101;-91
2023/03/30 03:14:48;;;;;;;3.25;1.13;;;18.40;57.10;;;;;;5012560;28;20119;-91
2023/03/30 03:17:15;;;;;;;1.83;0.80;;;18.40;57.20;;;;;;5012861;28;20113;-85
2023/03/30 03:19:44;;;;;;;1.58;0.73;;;18.40;57.10;;;;;;5012954;28;20040;-89
2023/03/30 03:22:09;;;;;;;1.20;0.55;;;18.40;57.10;;;;;;5012573;28;20041;-89
2023/03/30 03:24:37;;;;;;;3.42;1.08;;;18.40;57.10;;;;;;5012533;28;20018;-89
2023/03/30 03:27:03;;;;;;;0.98;0.50;;;18.40;57.10;;;;;;5016228;28;20076;-89
2023/03/30 03:29:29;;;;;;;2.45;0.63;;;18.40;57.10;;;;;;5016275;28;20436;-88
2023/03/30 03:31:54;;;;;;;2.70;0.75;;;18.40;57.10;;;;;;5016178;28;20033;-89
2023/03/30 03:34:20;;;;;;;4.05;0.80;;;18.40;57.10;;;;;;5016273;28;20025;-89
2023/03/30 03:36:45;;;;;;;1.63;0.68;;;18.40;57.10;;;;;;5016240;28;20033;-90
2023/03/30 03:39:11;;;;;;;1.27;0.68;;;18.40;57.10;;;;;;5016228;28;20026;-90
2023/03/30 03:41:36;;;;;;;2.40;0.82;;;18.40;57.20;;;;;;5016257;28;20484;-89
2023/03/30 03:44:02;;;;;;;1.58;0.70;;;18.40;57.20;;;;;;5016149;28;20030;-89
2023/03/30 03:46:28;;;;;;;1.83;0.63;;;18.40;57.20;;;;;;5016274;28;20101;-88
2023/03/30 03:48:53;;;;;;;2.78;0.70;;;18.40;57.20;;;;;;5015884;28;20072;-90
2023/03/30 03:51:19;;;;;;;1.55;0.55;;;18.40;57.20;;;;;;5015616;28;20030;-90
2023/03/30 03:53:46;;;;;;;1.75;0.40;;;18.40;57.20;;;;;;5015840;28;20101;-90
2023/03/30 03:56:13;;;;;;;1.58;0.70;;;18.40;57.20;;;;;;5016182;28;20037;-88
2023/03/30 03:58:39;;;;;;;1.92;0.82;;;18.40;57.20;;;;;;5015731;28;20065;-88
2023/03/30 04:01:05;;;;;;;2.85;0.50;;;18.40;57.20;;;;;;5015709;28;20377;-88
2023/03/30 04:03:31;;;;;;;1.90;0.90;;;18.40;57.20;;;;;;5015475;28;20021;-88
2023/03/30 04:06:00;;;;;;;2.97;0.80;;;18.40;57.20;;;;;;5015315;28;20030;-88
2023/03/30 04:08:27;;;;;;;0.98;0.60;;;18.40;57.20;;;;;;5015423;28;20030;-88
2023/03/30 04:10:52;;;;;;;2.17;0.70;;;18.40;57.30;;;;;;5015305;28;20061;-88
2023/03/30 04:13:18;;;;;;;2.65;0.82;;;18.40;57.30;;;;;;5015391;28;20537;-90
2023/03/30 04:15:44;;;;;;;2.47;0.75;;;18.40;57.40;;;;;;5015181;28;20050;-90
2023/03/30 04:18:09;;;;;;;1.67;0.85;;;18.40;57.40;;;;;;5015553;28;20014;-89
2023/03/30 04:20:35;;;;;;;1.33;0.73;;;18.40;57.40;;;;;;5015955;28;20045;-89
2023/03/30 04:23:01;;;;;;;2.80;0.70;;;18.40;57.40;;;;;;5016400;28;20018;-89
2023/03/30 04:25:27;;;;;;;3.30;0.70;;;18.40;57.40;;;;;;5016175;28;20030;-89
2023/03/30 04:27:54;;;;;;;2.10;0.75;;;18.40;57.40;;;;;;5016151;28;20018;-90
2023/03/30 04:30:21;;;;;;;1.60;0.60;;;18.40;57.50;;;;;;5015373;28;20596;-86
2023/03/30 04:33:01;;;;;;;2.30;0.60;;;18.30;57.30;;;;;;5014706;28;20485;-69
2023/03/30 04:35:29;;;;;;;1.35;0.77;;;18.40;57.40;;;;;;5014206;28;20025;-68
2023/03/30 04:37:56;;;;;;;2.50;0.55;;;18.40;57.40;;;;;;5013772;28;20479;-69
2023/03/30 04:40:23;;;;;;;1.73;0.73;;;18.30;57.40;;;;;;5014074;28;20101;-68
2023/03/30 04:42:49;;;;;;;2.03;0.60;;;18.40;57.40;;;;;;5014040;28;20026;-69
2023/03/30 04:45:17;;;;;;;2.88;0.70;;;18.40;57.50;;;;;;5013752;28;20076;-68
2023/03/30 04:47:44;;;;;;;2.75;0.85;;;18.40;57.50;;;;;;5013978;28;20033;-69
2023/03/30 04:50:10;;;;;;;3.13;0.90;;;18.40;57.50;;;;;;5013676;28;20028;-69
2023/03/30 04:52:36;;;;;;;1.90;0.65;;;18.30;57.50;;;;;;5013766;28;20030;-68
2023/03/30 04:55:01;;;;;;;4.88;1.02;;;18.40;57.60;;;;;;5013639;28;20036;-69
2023/03/30 04:57:27;;;;;;;2.17;0.68;;;18.40;57.60;;;;;;5013883;28;20076;-68
2023/03/30 04:59:52;;;;;;;2.55;0.88;;;18.30;57.50;;;;;;5013573;28;20021;-69
2023/03/30 05:02:18;;;;;;;2.85;0.90;;;18.30;58.20;;;;;;4995986;28;20038;-68
2023/03/30 05:04:44;;;;;;;3.70;0.70;;;18.40;57.60;;;;;;5013377;28;20022;-69
2023/03/30 05:07:09;;;;;;;2.33;0.70;;;18.40;57.60;;;;;;5013467;28;20029;-69
2023/03/30 05:09:35;;;;;;;3.40;0.93;;;18.40;57.70;;;;;;5013402;28;20076;-68
2023/03/30 05:12:02;;;;;;;2.47;0.88;;;18.40;57.70;;;;;;5013251;28;20037;-68
2023/03/30 05:14:28;;;;;;;3.60;1.08;;;18.40;66.20;;;;;;5013382;28;20033;-69
2023/03/30 05:16:53;;;;;;;4.50;0.90;;;18.40;57.70;;;;;;5013007;28;20054;-69
2023/03/30 05:19:19;;;;;;;3.85;1.10;;;18.40;57.80;;;;;;5013131;28;20033;-68
2023/03/30 05:21:45;;;;;;;3.38;0.90;;;18.40;57.70;;;;;;5013035;28;20393;-69
2023/03/30 05:24:12;;;;;;;3.05;1.02;;;18.40;57.70;;;;;;5013097;28;20520;-69
2023/03/30 05:26:37;;;;;;;2.67;1.15;;;18.40;57.80;;;;;;5012949;28;20160;-69
2023/03/30 05:29:03;;;;;;;1.35;0.70;;;18.40;57.70;;;;;;5013110;28;20497;-68
2023/03/30 05:31:29;;;;;;;3.30;1.10;;;18.40;57.70;;;;;;5012946;28;20125;-68
2023/03/30 05:33:54;;;;;;;3.28;0.90;;;18.40;57.80;;;;;;5013206;28;20457;-69
2023/03/30 05:36:20;;;;;;;5.07;1.30;;;18.50;57.80;;;;;;5014111;28;20080;-68
2023/03/30 05:38:45;;;;;;;5.20;1.17;;;18.50;57.90;;;;;;5019088;28;20098;-68
2023/03/30 05:41:11;;;;;;;6.75;1.02;;;18.50;57.90;;;;;;5012718;28;20085;-69
2023/03/30 05:43:37;;;;;;;5.72;1.48;;;18.50;57.90;;;;;;5012707;28;20026;-68
2023/03/30 05:46:03;;;;;;;3.67;1.02;;;18.40;57.80;;;;;;5012733;28;20033;-69
2023/03/30 05:48:29;;;;;;;4.38;1.80;;;18.50;57.90;;;;;;5011967;28;20022;-69
2023/03/30 05:50:55;;;;;;;5.07;1.60;;;18.50;57.80;;;;;;5012636;28;20072;-68
2023/03/30 05:53:21;;;;;;;6.55;1.35;;;18.40;57.70;;;;;;5012878;28;20049;-68
2023/03/30 05:55:48;;;;;;;4.10;1.30;;;18.50;58.40;;;;;;5012496;28;20477;-68
2023/03/30 05:58:15;;;;;;;5.60;1.40;;;18.50;58.30;;;;;;5012509;28;20029;-69
2023/03/30 06:00:42;;;;;;;5.07;1.60;;;18.50;57.60;;;;;;5012402;28;20034;-69
2023/03/30 06:03:10;;;;;;;7.47;1.70;;;18.50;57.60;;;;;;5012389;28;20560;-69
2023/03/30 06:05:38;;;;;;;5.65;1.50;;;18.50;58.10;;;;;;5012699;28;20041;-69
2023/03/30 06:08:06;;;;;;;5.47;1.35;;;18.50;58.10;;;;;;5012339;28;20034;-69
2023/03/30 06:10:33;;;;;;;4.38;1.67;;;18.50;57.40;;;;;;5012303;28;20045;-69
2023/03/30 06:13:00;;;;;;;4.95;1.40;;;18.50;57.40;;;;;;5012616;28;20029;-69
2023/03/30 06:15:26;;;;;;;6.40;1.63;;;18.50;57.30;;;;;;5012052;28;20077;-68
2023/03/30 06:17:52;;;;;;;5.90;1.67;;;18.40;57.20;;;;;;5012878;28;20030;-72
2023/03/30 06:20:20;;;;;;;6.68;1.73;;;18.50;57.20;;;;;;5012506;28;20172;-69
2023/03/30 06:22:49;;;;;;;3.60;1.15;;;18.50;57.20;;;;;;5012366;28;20103;-69
2023/03/30 06:25:16;;;;;;;9.48;2.22;;;18.50;57.20;;;;;;5012300;28;20381;-69
2023/03/30 06:27:42;;;;;;;6.40;1.70;;;18.50;57.20;;;;;;5012821;28;20018;-73
2023/03/30 06:30:08;;;;;;;8.90;1.85;;;18.50;57.10;;;;;;5012348;28;20022;-68
2023/03/30 06:32:35;;;;;;;4.80;1.30;;;18.50;57.10;;;;;;5012469;28;20032;-69
2023/03/30 06:35:02;;;;;;;7.70;1.55;;;18.40;57.00;;;;;;5012347;28;20068;-69
2023/03/30 06:37:30;;;;;;;5.40;1.42;;;18.50;57.10;;;;;;5012097;28;20428;-69
2023/03/30 06:39:56;;;;;;;4.28;1.48;;;18.40;57.00;;;;;;5012360;28;20088;-70
2023/03/30 06:42:22;;;;;;;8.10;2.00;;;18.40;57.00;;;;;;5012223;28;20434;-69
2023/03/30 06:44:47;;;;;;;6.80;2.05;;;18.40;57.10;;;;;;5012138;28;20141;-69
2023/03/30 06:47:13;;;;;;;7.57;1.48;;;18.40;57.10;;;;;;5012057;28;20476;-70
2023/03/30 06:49:39;;;;;;;4.70;1.40;;;18.40;57.70;;;;;;5012328;28;20022;-69
2023/03/30 06:52:06;;;;;;;6.93;1.73;;;18.40;57.20;;;;;;5012282;28;20034;-70
2023/03/30 06:54:31;;;;;;;7.10;1.83;;;18.40;57.10;;;;;;5012076;28;20053;-70
2023/03/30 06:56:57;;;;;;;8.75;1.85;;;18.40;57.20;;;;;;5012042;28;20116;-69
2023/03/30 06:59:22;;;;;;;11.05;2.35;;;18.40;57.20;;;;;;5012725;28;20044;-70
2023/03/30 07:01:48;;;;;;;8.00;1.92;;;18.40;57.90;;;;;;5015824;28;20049;-69
2023/03/30 07:04:14;;;;;;;7.05;1.80;;;18.40;57.30;;;;;;5015807;28;20128;-70
2023/03/30 07:06:40;;;;;;;10.73;2.10;;;18.40;57.20;;;;;;5015739;28;20033;-70
2023/03/30 07:09:05;;;;;;;5.72;1.85;;;18.40;57.30;;;;;;5015722;28;20101;-70
2023/03/30 07:11:31;;;;;;;11.40;2.08;;;18.40;57.30;;;;;;5015668;28;20030;-70
2023/03/30 07:13:57;;;;;;;8.48;2.13;;;18.50;57.30;;;;;;5015712;28;20072;-70
2023/03/30 07:16:24;;;;;;;9.00;1.83;;;18.50;57.30;;;;;;5015316;28;20045;-70
2023/03/30 07:18:51;;;;;;;5.35;1.98;;;18.40;57.20;;;;;;5015827;28;20026;-69
2023/03/30 07:21:18;;;;;;;4.50;1.52;;;18.40;57.20;;;;;;5015595;28;20037;-69
2023/03/30 07:23:43;;;;;;;7.30;2.10;;;18.40;57.20;;;;;;5015191;28;20038;-70
2023/03/30 07:26:10;;;;;;;9.15;1.95;;;18.50;57.30;;;;;;5015234;28;20025;-70
2023/03/30 07:28:37;;;;;;;7.18;2.05;;;18.50;57.30;;;;;;5015300;28;20083;-70
2023/03/30 07:31:04;;;;;;;7.25;2.40;;;18.50;57.40;;;;;;5015461;28;20427;-69
2023/03/30 07:33:32;;;;;;;11.27;2.30;;;18.50;57.40;;;;;;4997892;28;20030;-69
2023/03/30 07:35:58;;;;;;;9.18;3.05;;;18.40;57.30;;;;;;5015195;28;20030;-70
2023/03/30 07:38:24;;;;;;;6.80;1.67;;;18.50;57.40;;;;;;5015439;28;20048;-71
2023/03/30 07:40:50;;;;;;;9.07;2.30;;;18.50;57.30;;;;;;4997879;28;20091;-70
2023/03/30 07:43:16;;;;;;;8.75;1.70;;;18.40;57.30;;;;;;4997455;28;20428;-70
2023/03/30 07:45:42;;;;;;;11.18;2.55;;;18.50;57.50;;;;;;4997771;28;20036;-70
2023/03/30 07:48:08;;;;;;;8.27;2.00;;;18.50;57.40;;;;;;4997710;28;20392;-70
2023/03/30 07:50:34;;;;;;;9.10;3.08;;;18.50;57.40;;;;;;4997687;28;20037;-69
2023/03/30 07:53:00;;;;;;;8.60;2.33;;;18.50;57.40;;;;;;4981626;28;20029;-70
2023/03/30 07:55:30;;;;;;;9.35;2.53;;;18.50;58.00;;;;;;5014773;28;20076;-70
2023/03/30 07:57:56;;;;;;;7.88;2.33;;;18.50;57.40;;;;;;5014831;28;20026;-70
2023/03/30 08:00:23;;;;;;;9.80;2.28;;;18.50;57.40;;;;;;4997312;28;20473;-69
2023/03/30 08:02:49;;;;;;;14.80;2.78;;;18.50;57.40;;;;;;5014736;28;20037;-69
2023/03/30 08:05:16;;;;;;;12.15;2.40;;;18.50;57.40;;;;;;5014971;28;20022;-69
2023/03/30 08:07:43;;;;;;;12.02;2.50;;;18.50;57.40;;;;;;5014866;28;20037;-69
2023/03/30 08:10:10;;;;;;;6.65;2.35;;;18.50;57.40;;;;;;5014799;28;20385;-69
2023/03/30 08:12:36;;;;;;;10.95;2.85;;;18.50;57.40;;;;;;5013748;28;20026;-69
2023/03/30 08:15:03;;;;;;;10.20;2.80;;;18.50;57.40;;;;;;5014274;28;20025;-70
2023/03/30 08:17:28;;;;;;;9.75;2.90;;;18.50;57.40;;;;;;5014495;28;20041;-69
2023/03/30 08:19:57;;;;;;;9.77;2.83;;;18.50;57.50;;;;;;5014460;28;20030;-69
2023/03/30 08:22:23;;;;;;;7.40;2.47;;;18.50;57.50;;;;;;5014269;28;20128;-69
2023/03/30 08:24:48;;;;;;;9.25;2.72;;;18.50;57.40;;;;;;5014382;28;20091;-69
2023/03/30 08:27:14;;;;;;;9.43;2.47;;;18.50;57.40;;;;;;5014255;28;20030;-69
2023/03/30 08:29:40;;;;;;;11.32;2.33;;;18.50;57.60;;;;;;5014487;28;20041;-69
2023/03/30 08:32:06;;;;;;;10.65;2.47;;;18.50;57.70;;;;;;5014603;28;20025;-69
2023/03/30 08:34:32;;;;;;;11.60;3.17;;;18.50;57.80;;;;;;5014168;28;20030;-69
2023/03/30 08:36:58;;;;;;;9.90;2.00;;;18.50;57.90;;;;;;4996659;28;20041;-69
2023/03/30 08:39:24;;;;;;;8.07;2.90;;;18.50;57.90;;;;;;5013918;28;20022;-69
2023/03/30 08:42:02;;;;;;;9.38;2.47;;;18.50;57.90;;;;;;5013636;28;20065;-69
2023/03/30 08:44:37;;;;;;;10.63;2.65;;;18.50;57.90;;;;;;5013861;28;20053;-69
2023/03/30 08:47:09;;;;;;;6.60;1.95;;;18.50;58.00;;;;;;5013877;28;20395;-69
2023/03/30 08:49:41;;;;;;;9.05;2.17;;;18.60;58.00;;;;;;5013633;28;20025;-69
2023/03/30 08:52:10;;;;;;;9.50;2.03;;;18.50;57.90;;;;;;5013918;28;20353;-69
2023/03/30 08:54:36;;;;;;;13.83;3.20;;;18.60;58.00;;;;;;5013753;28;20034;-69
2023/03/30 08:57:29;;;;;;;13.07;3.63;;;18.60;57.90;;;;;;5013530;28;20126;-69
2023/03/30 09:00:26;;;;;;;11.05;2.88;;;18.60;57.90;;;;;;5013659;28;20420;-69
2023/03/30 09:03:09;;;;;;;12.68;3.65;;;18.60;57.80;;;;;;5013633;28;20456;-69
2023/03/30 09:05:42;;;;;;;11.18;3.33;;;18.60;57.80;;;;;;5013661;28;20109;-69
2023/03/30 09:08:23;;;;;;;14.25;3.35;;;18.60;57.90;;;;;;5013631;28;20038;-69
2023/03/30 09:11:00;;;;;;;13.30;3.50;;;18.70;57.90;;;;;;5013536;28;20104;-69
2023/03/30 09:13:31;;;;;;;10.50;2.50;;;18.70;57.90;;;;;;5013385;28;20507;-69
2023/03/30 09:16:27;;;;;;;18.02;4.00;;;18.70;57.80;;;;;;5013201;28;20062;-69
2023/03/30 09:18:56;;;;;;;12.93;3.90;;;18.70;57.80;;;;;;5013278;28;20073;-69
2023/03/30 09:21:26;;;;;;;13.35;4.22;;;18.80;57.90;;;;;;5013159;28;20386;-69
2023/03/30 09:23:55;;;;;;;22.63;4.97;;;18.80;57.80;;;;;;5012084;28;20107;-69
2023/03/30 09:26:31;;;;;;;13.68;4.65;;;18.80;57.90;;;;;;5013114;28;20026;-69
2023/03/30 09:29:12;;;;;;;15.68;5.35;;;18.80;57.90;;;;;;5013490;28;20389;-69
2023/03/30 09:31:50;;;;;;;18.55;5.68;;;18.80;57.90;;;;;;5013360;28;20029;-69
2023/03/30 09:34:34;;;;;;;18.92;5.97;;;18.80;57.80;;;;;;5012820;28;20026;-69
2023/03/30 09:37:04;;;;;;;22.17;6.85;;;18.80;57.90;;;;;;5012903;28;20392;-69
2023/03/30 09:39:33;;;;;;;19.77;6.35;;;18.90;57.90;;;;;;4995113;28;20018;-69
2023/03/30 09:41:59;;;;;;;16.38;6.85;;;18.90;58.00;;;;;;5012655;28;20100;-69
2023/03/30 09:44:42;;;;;;;17.75;6.60;;;18.90;58.00;;;;;;5012925;28;20381;-70
2023/03/30 09:47:26;;;;;;;15.88;6.95;;;18.90;57.80;;;;;;5012692;28;20438;-69
2023/03/30 09:50:23;;;;;;;18.45;7.07;;;18.90;57.70;;;;;;5012463;28;20041;-69
2023/03/30 09:53:02;;;;;;;15.98;6.50;;;18.90;57.50;;;;;;5012147;28;20038;-69
2023/03/30 09:55:33;;;;;;;17.73;6.18;;;19.00;57.70;;;;;;5012675;28;20034;-69
2023/03/30 09:58:28;;;;;;;16.98;6.07;;;19.00;57.60;;;;;;5012378;28;20491;-69
2023/03/30 10:01:11;;;;;;;15.73;5.22;;;19.00;57.50;;;;;;5012496;28;20034;-69
2023/03/30 10:03:38;;;;;;;19.00;6.38;;;19.10;57.50;;;;;;5012640;28;20435;-74
2023/03/30 10:06:06;;;;;;;17.95;5.18;;;19.10;57.30;;;;;;5012433;28;20026;-71
2023/03/30 10:08:43;;;;;;;16.85;5.25;;;19.10;57.20;;;;;;5012525;28;20025;-70
2023/03/30 10:11:09;;;;;;;14.65;4.18;;;19.20;57.10;;;;;;4994816;28;20037;-70
2023/03/30 10:13:37;;;;;;;18.85;4.38;;;19.20;57.10;;;;;;5012117;28;20032;-70
2023/03/30 10:16:06;;;;;;;14.15;4.15;;;19.20;57.00;;;;;;5011927;28;20046;-70
2023/03/30 10:18:44;;;;;;;10.95;3.83;;;19.20;57.00;;;;;;5012235;28;20527;-70
2023/03/30 10:21:12;;;;;;;15.45;4.45;;;19.30;57.00;;;;;;5012061;28;20092;-71
2023/03/30 10:23:40;;;;;;;15.73;4.13;;;19.20;56.90;;;;;;5012769;28;20388;-70
2023/03/30 10:26:17;;;;;;;11.75;3.75;;;19.30;56.90;;;;;;5012767;28;20037;-71
2023/03/30 10:29:02;;;;;;;16.95;4.13;;;19.30;56.90;;;;;;5012131;28;20088;-71
2023/03/30 10:31:28;;;;;;;15.05;3.55;;;19.30;56.70;;;;;;5012551;28;20026;-71
2023/03/30 10:33:59;;;;;;;13.15;4.22;;;19.40;56.70;;;;;;5011598;28;20018;-71
2023/03/30 10:36:37;;;;;;;14.15;3.97;;;19.40;56.60;;;;;;5011968;28;20118;-70
2023/03/30 10:39:15;;;;;;;16.13;3.72;;;19.50;56.60;;;;;;5012029;28;20061;-70
2023/03/30 10:41:41;;;;;;;15.63;4.25;;;19.50;56.50;;;;;;5011868;28;20045;-79
2023/03/30 10:44:21;;;;;;;14.27;3.83;;;19.50;56.50;;;;;;5012230;28;20026;-79
2023/03/30 10:46:49;;;;;;;20.23;3.58;;;19.50;56.30;;;;;;5012436;28;20032;-79
2023/03/30 10:49:26;;;;;;;14.57;4.00;;;19.60;56.30;;;;;;5012252;28;20018;-80
2023/03/30 10:52:08;;;;;;;11.25;3.30;;;19.60;56.30;;;;;;5011903;28;20489;-79
2023/03/30 10:54:42;;;;;;;13.40;3.78;;;19.60;56.30;;;;;;5012478;28;20030;-80
2023/03/30 10:57:13;;;;;;;14.88;3.42;;;19.60;56.30;;;;;;5012398;28;20026;-80
2023/03/30 11:00:09;;;;;;;;;;;19.70;56.20;;;;;;5012890;28;20112;-80
2023/03/30 11:02:43;;;;;;;11.20;2.78;;;19.70;56.10;;;;;;5012341;28;20285;-80
2023/03/30 11:05:14;;;;;;;13.13;2.97;;;19.70;56.10;;;;;;5011943;28;20041;-80
2023/03/30 11:07:49;;;;;;;14.85;3.63;;;19.60;56.00;;;;;;5012117;28;20396;-79
2023/03/30 11:10:28;;;;;;;16.67;3.78;;;19.60;56.10;;;;;;5012133;28;20033;-79
2023/03/30 11:12:57;;;;;;;14.15;3.67;;;19.60;56.80;;;;;;5012006;28;20097;-79
2023/03/30 11:15:42;;;;;;;12.40;3.23;;;19.60;56.20;;;;;;5011855;28;20484;-79
2023/03/30 11:18:08;;;;;;;14.27;3.25;;;19.50;56.30;;;;;;5011970;28;20059;-80
2023/03/30 11:20:53;;;;;;;12.13;3.28;;;19.50;56.30;;;;;;5012054;28;20404;-87
2023/03/30 11:23:41;;;;;;;9.68;2.70;;;19.50;57.00;;;;;;5011961;28;20022;-84
2023/03/30 11:26:11;;;;;;;12.35;2.90;;;19.50;56.20;;;;;;5012070;28;20022;-80
2023/03/30 11:28:56;;;;;;;14.02;3.08;;;19.50;56.30;;;;;;5011905;28;20026;-80
2023/03/30 11:31:34;;;;;;;13.65;4.20;;;19.50;56.30;;;;;;5012122;28;20105;-80
2023/03/30 11:34:25;;;;;;;13.70;3.28;;;19.40;56.30;;;;;;5011740;28;20068;-79
2023/03/30 11:37:10;;;;;;;15.30;3.85;;;19.40;56.40;;;;;;5011823;28;20092;-79
2023/03/30 11:39:40;;;;;;;13.38;3.58;;;19.40;56.30;;;;;;5011757;28;20084;-80
2023/03/30 11:42:14;;;;;;;13.07;3.73;;;19.40;56.30;;;;;;5011744;28;20038;-80
2023/03/30 11:44:40;;;;;;;10.40;3.17;;;19.40;56.50;;;;;;5011763;28;20026;-78
2023/03/30 11:47:24;;;;;;;13.95;3.30;;;19.40;56.40;;;;;;5013365;28;20436;-80
2023/03/30 11:49:55;;;;;;;14.57;3.40;;;19.40;56.30;;;;;;5015161;28;20058;-79
2023/03/30 11:52:26;;;;;;;14.80;3.13;;;19.40;56.30;;;;;;5015283;28;20029;-79
2023/03/30 11:55:22;;;;;;;14.80;3.58;;;19.40;56.40;;;;;;5015084;28;20076;-79
2023/03/30 11:58:00;;;;;;;12.93;3.22;;;19.40;56.30;;;;;;5014939;28;20060;-79
2023/03/30 12:00:42;;;;;;;12.68;3.38;;;19.40;56.30;;;;;;5014727;28;20084;-79
2023/03/30 12:03:41;;;;;;;14.27;3.63;;;19.40;56.30;;;;;;5014870;28;20029;-79
2023/03/30 12:06:24;;;;;;;14.23;3.17;;;19.40;56.20;;;;;;5014684;28;20029;-78
2023/03/30 12:09:35;;;;;;;11.63;3.47;;;19.40;56.20;;;;;;5014748;28;20061;-78
2023/03/30 12:12:17;;;;;;;14.25;3.15;;;19.40;56.20;;;;;;5008917;28;20049;-77
2023/03/30 12:15:01;;;;;;;13.68;3.63;;;19.40;56.20;;;;;;5014943;28;20385;-77
2023/03/30 12:17:48;;;;;;;14.88;3.63;;;19.40;56.10;;;;;;5014485;28;20041;-78
2023/03/30 12:20:29;;;;;;;17.05;3.97;;;19.40;56.00;;;;;;5014232;28;20489;-77
2023/03/30 12:23:05;;;;;;;12.82;3.78;;;19.40;56.10;;;;;;5014775;28;20143;-77
2023/03/30 12:25:55;;;;;;;12.48;3.25;;;19.30;56.10;;;;;;5014230;28;20038;-78
2023/03/30 12:28:25;;;;;;;;;;;19.30;56.00;;;;;;5015030;28;20045;-78
2023/03/30 12:30:51;;;;;;;12.63;3.10;;;19.30;56.00;;;;;;5014604;28;20294;-79
2023/03/30 12:33:32;;;;;;;13.10;3.33;;;19.30;56.00;;;;;;5014371;28;20022;-79
2023/03/30 12:36:13;;;;;;;10.38;2.92;;;19.30;56.70;;;;;;5014292;28;20042;-78
2023/03/30 12:38:45;;;;;;;14.82;4.25;;;19.40;56.00;;;;;;5014143;28;20088;-78
2023/03/30 12:41:15;;;;;;;11.07;3.30;;;19.40;56.00;;;;;;5014195;28;20085;-78
2023/03/30 12:43:50;;;;;;;;;;;19.40;55.90;;;;;;5014673;28;20330;-77
2023/03/30 12:46:26;;;;;;;12.60;3.15;;;19.40;56.00;;;;;;5013986;28;19960;-79
2023/03/30 12:49:07;;;;;;;12.98;3.38;;;19.50;55.80;;;;;;5014337;28;20037;-79
2023/03/30 12:51:47;;;;;;;;;;;19.50;55.50;;;;;;5014493;28;20026;-79
2023/03/30 12:54:33;;;;;;;13.10;3.58;;;19.60;55.40;;;;;;5014020;28;19905;-78
2023/03/30 12:57:10;;;;;;;15.65;4.00;;;19.60;55.30;;;;;;5013500;28;20498;-78
2023/03/30 13:00:06;;;;;;;13.00;3.50;;;19.70;55.20;;;;;;5013697;28;20026;-80
2023/03/30 13:02:42;;;;;;;13.77;3.85;;;19.70;55.10;;;;;;5013834;28;20034;-81
2023/03/30 13:05:23;;;;;;;11.45;3.20;;;19.70;55.00;;;;;;5013723;28;20021;-78
2023/03/30 13:07:52;;;;;;;14.80;3.10;;;19.70;55.00;;;;;;5013479;28;20040;-83
2023/03/30 13:10:35;;;;;;;13.68;4.00;;;19.80;54.80;;;;;;5013468;28;20022;-80